sensor_id;sensor_type;location;lat;lon;timestamp;P1;durP1;ratioP1;P2;durP2;ratioP2
40637;SDS011;26336;44.696;10.622;2023-02-25T00:01:31;50.97;;;34.03;;
40637;SDS011;26336;44.696;10.622;2023-02-25T00:04:36;48.38;;;33.20;;
40637;SDS011;26336;44.696;10.622;2023-02-25T00:07:39;52.38;;;33.60;;
40637;SDS011;26336;44.696;10.622;2023-02-25T00:10:43;53.33;;;34.83;;
40637;SDS011;26336;44.696;10.622;2023-02-25T00:13:47;55.20;;;35.45;;
40637;SDS011;26336;44.696;10.622;2023-02-25T00:16:52;54.53;;;36.03;;
40637;SDS011;26336;44.696;10.622;2023-02-25T00:19:59;63.60;;;36.92;;
40637;SDS011;26336;44.696;10.622;2023-02-25T00:23:03;62.35;;;36.63;;
40637;SDS011;26336;44.696;10.622;2023-02-25T00:26:10;50.60;;;33.47;;
40637;SDS011;26336;44.696;10.622;2023-02-25T00:29:15;54.00;;;33.90;;
40637;SDS011;26336;44.696;10.622;2023-02-25T00:32:20;54.60;;;32.97;;
40637;SDS011;26336;44.696;10.622;2023-02-25T00:35:26;59.95;;;33.30;;
40637;SDS011;26336;44.696;10.622;2023-02-25T00:38:30;53.58;;;34.80;;
40637;SDS011;26336;44.696;10.622;2023-02-25T00:41:34;49.95;;;34.05;;
40637;SDS011;26336;44.696;10.622;2023-02-25T00:44:38;52.70;;;33.92;;
40637;SDS011;26336;44.696;10.622;2023-02-25T00:47:42;59.78;;;35.47;;
40637;SDS011;26336;44.696;10.622;2023-02-25T00:50:46;53.55;;;34.08;;
40637;SDS011;26336;44.696;10.622;2023-02-25T00:53:51;52.63;;;33.05;;
40637;SDS011;26336;44.696;10.622;2023-02-25T00:56:56;54.65;;;35.30;;
40637;SDS011;26336;44.696;10.622;2023-02-25T01:00:00;58.35;;;34.63;;
40637;SDS011;26336;44.696;10.622;2023-02-25T01:03:04;55.63;;;33.67;;
40637;SDS011;26336;44.696;10.622;2023-02-25T01:06:08;53.22;;;33.25;;
40637;SDS011;26336;44.696;10.622;2023-02-25T01:09:13;59.33;;;35.72;;
40637;SDS011;26336;44.696;10.622;2023-02-25T01:12:17;60.03;;;35.80;;
40637;SDS011;26336;44.696;10.622;2023-02-25T01:15:21;64.18;;;36.15;;
40637;SDS011;26336;44.696;10.622;2023-02-25T01:18:25;55.45;;;36.40;;
40637;SDS011;26336;44.696;10.622;2023-02-25T01:21:34;54.63;;;34.63;;
40637;SDS011;26336;44.696;10.622;2023-02-25T01:24:40;54.80;;;33.92;;
40637;SDS011;26336;44.696;10.622;2023-02-25T01:28:03;53.40;;;33.80;;
40637;SDS011;26336;44.696;10.622;2023-02-25T01:31:14;53.75;;;32.65;;
40637;SDS011;26336;44.696;10.622;2023-02-25T01:34:22;51.10;;;31.42;;
40637;SDS011;26336;44.696;10.622;2023-02-25T01:37:27;47.33;;;30.98;;
40637;SDS011;26336;44.696;10.622;2023-02-25T01:40:31;48.53;;;31.40;;
40637;SDS011;26336;44.696;10.622;2023-02-25T01:43:35;51.63;;;33.08;;
40637;SDS011;26336;44.696;10.622;2023-02-25T01:46:39;52.38;;;31.63;;
40637;SDS011;26336;44.696;10.622;2023-02-25T01:49:44;52.20;;;32.80;;
40637;SDS011;26336;44.696;10.622;2023-02-25T01:52:49;49.70;;;31.40;;
40637;SDS011;26336;44.696;10.622;2023-02-25T01:55:55;52.78;;;32.88;;
40637;SDS011;26336;44.696;10.622;2023-02-25T01:59:01;51.85;;;33.70;;
40637;SDS011;26336;44.696;10.622;2023-02-25T02:02:09;51.10;;;31.98;;
40637;SDS011;26336;44.696;10.622;2023-02-25T02:05:16;51.58;;;32.25;;
40637;SDS011;26336;44.696;10.622;2023-02-25T02:08:20;48.78;;;31.75;;
40637;SDS011;26336;44.696;10.622;2023-02-25T02:11:25;50.05;;;32.42;;
40637;SDS011;26336;44.696;10.622;2023-02-25T02:14:30;49.67;;;32.47;;
40637;SDS011;26336;44.696;10.622;2023-02-25T02:17:58;57.95;;;34.33;;
40637;SDS011;26336;44.696;10.622;2023-02-25T02:27:29;52.78;;;35.22;;
40637;SDS011;26336;44.696;10.622;2023-02-25T02:44:36;46.38;;;30.10;;
40637;SDS011;26336;44.696;10.622;2023-02-25T02:47:51;50.53;;;31.88;;
40637;SDS011;26336;44.696;10.622;2023-02-25T02:51:01;52.00;;;31.00;;
40637;SDS011;26336;44.696;10.622;2023-02-25T02:54:09;47.22;;;30.73;;
40637;SDS011;26336;44.696;10.622;2023-02-25T02:57:16;49.17;;;30.17;;
40637;SDS011;26336;44.696;10.622;2023-02-25T03:00:25;50.17;;;30.08;;
40637;SDS011;26336;44.696;10.622;2023-02-25T03:03:35;50.67;;;30.58;;
40637;SDS011;26336;44.696;10.622;2023-02-25T03:06:45;54.97;;;32.53;;
40637;SDS011;26336;44.696;10.622;2023-02-25T03:09:57;55.30;;;32.97;;
40637;SDS011;26336;44.696;10.622;2023-02-25T03:13:08;51.92;;;33.35;;
40637;SDS011;26336;44.696;10.622;2023-02-25T03:16:16;60.60;;;34.97;;
40637;SDS011;26336;44.696;10.622;2023-02-25T03:19:30;53.65;;;32.72;;
40637;SDS011;26336;44.696;10.622;2023-02-25T03:22:50;54.50;;;32.30;;
40637;SDS011;26336;44.696;10.622;2023-02-25T03:26:10;54.43;;;34.50;;
40637;SDS011;26336;44.696;10.622;2023-02-25T03:29:21;50.90;;;32.47;;
40637;SDS011;26336;44.696;10.622;2023-02-25T03:32:27;48.23;;;30.70;;
40637;SDS011;26336;44.696;10.622;2023-02-25T03:35:33;51.00;;;32.13;;
40637;SDS011;26336;44.696;10.622;2023-02-25T03:38:40;58.88;;;34.45;;
40637;SDS011;26336;44.696;10.622;2023-02-25T03:41:50;51.83;;;32.23;;
40637;SDS011;26336;44.696;10.622;2023-02-25T03:44:58;57.03;;;32.70;;
40637;SDS011;26336;44.696;10.622;2023-02-25T03:48:04;57.47;;;33.27;;
40637;SDS011;26336;44.696;10.622;2023-02-25T03:51:10;52.60;;;33.13;;
40637;SDS011;26336;44.696;10.622;2023-02-25T03:54:19;61.05;;;35.70;;
40637;SDS011;26336;44.696;10.622;2023-02-25T03:57:26;63.33;;;36.37;;
40637;SDS011;26336;44.696;10.622;2023-02-25T04:00:39;61.83;;;34.67;;
40637;SDS011;26336;44.696;10.622;2023-02-25T04:03:44;53.07;;;33.77;;
40637;SDS011;26336;44.696;10.622;2023-02-25T04:06:49;58.27;;;35.53;;
40637;SDS011;26336;44.696;10.622;2023-02-25T04:09:53;50.70;;;32.77;;
40637;SDS011;26336;44.696;10.622;2023-02-25T04:12:57;54.57;;;33.13;;
40637;SDS011;26336;44.696;10.622;2023-02-25T04:16:01;52.03;;;33.03;;
40637;SDS011;26336;44.696;10.622;2023-02-25T04:19:05;55.47;;;32.43;;
40637;SDS011;26336;44.696;10.622;2023-02-25T04:22:09;51.73;;;31.20;;
40637;SDS011;26336;44.696;10.622;2023-02-25T04:25:13;58.07;;;32.30;;
40637;SDS011;26336;44.696;10.622;2023-02-25T04:28:17;55.43;;;32.77;;
40637;SDS011;26336;44.696;10.622;2023-02-25T04:31:20;55.83;;;32.43;;
40637;SDS011;26336;44.696;10.622;2023-02-25T04:34:25;52.87;;;32.33;;
40637;SDS011;26336;44.696;10.622;2023-02-25T04:37:29;52.85;;;31.25;;
40637;SDS011;26336;44.696;10.622;2023-02-25T04:40:33;57.27;;;33.47;;
40637;SDS011;26336;44.696;10.622;2023-02-25T04:43:37;54.33;;;33.17;;
40637;SDS011;26336;44.696;10.622;2023-02-25T04:46:41;51.20;;;31.97;;
40637;SDS011;26336;44.696;10.622;2023-02-25T04:49:45;52.50;;;33.03;;
40637;SDS011;26336;44.696;10.622;2023-02-25T04:52:49;51.53;;;32.27;;
40637;SDS011;26336;44.696;10.622;2023-02-25T04:55:52;53.07;;;33.17;;
40637;SDS011;26336;44.696;10.622;2023-02-25T04:58:57;50.23;;;32.33;;
40637;SDS011;26336;44.696;10.622;2023-02-25T05:02:01;50.27;;;31.73;;
40637;SDS011;26336;44.696;10.622;2023-02-25T05:05:04;52.30;;;31.60;;
40637;SDS011;26336;44.696;10.622;2023-02-25T05:08:08;52.53;;;33.10;;
40637;SDS011;26336;44.696;10.622;2023-02-25T05:11:12;51.37;;;32.63;;
40637;SDS011;26336;44.696;10.622;2023-02-25T05:14:16;57.67;;;33.75;;
40637;SDS011;26336;44.696;10.622;2023-02-25T05:17:20;57.07;;;33.70;;
40637;SDS011;26336;44.696;10.622;2023-02-25T05:20:24;49.30;;;31.03;;
40637;SDS011;26336;44.696;10.622;2023-02-25T05:23:28;50.47;;;31.00;;
40637;SDS011;26336;44.696;10.622;2023-02-25T05:26:32;50.40;;;31.83;;
40637;SDS011;26336;44.696;10.622;2023-02-25T05:29:36;51.90;;;31.77;;
40637;SDS011;26336;44.696;10.622;2023-02-25T05:32:40;52.93;;;31.97;;
40637;SDS011;26336;44.696;10.622;2023-02-25T05:35:44;57.17;;;33.37;;
40637;SDS011;26336;44.696;10.622;2023-02-25T05:38:48;55.07;;;32.40;;
40637;SDS011;26336;44.696;10.622;2023-02-25T05:41:55;51.87;;;33.03;;
40637;SDS011;26336;44.696;10.622;2023-02-25T05:44:59;52.53;;;32.10;;
40637;SDS011;26336;44.696;10.622;2023-02-25T05:48:03;56.20;;;32.43;;
40637;SDS011;26336;44.696;10.622;2023-02-25T05:51:09;50.13;;;31.60;;
40637;SDS011;26336;44.696;10.622;2023-02-25T05:54:15;54.83;;;31.37;;
40637;SDS011;26336;44.696;10.622;2023-02-25T05:57:19;53.87;;;32.53;;
40637;SDS011;26336;44.696;10.622;2023-02-25T06:00:26;47.87;;;32.07;;
40637;SDS011;26336;44.696;10.622;2023-02-25T06:03:30;52.37;;;30.80;;
40637;SDS011;26336;44.696;10.622;2023-02-25T06:06:34;51.10;;;31.60;;
40637;SDS011;26336;44.696;10.622;2023-02-25T06:09:39;50.13;;;30.13;;
40637;SDS011;26336;44.696;10.622;2023-02-25T06:12:43;48.53;;;30.70;;
40637;SDS011;26336;44.696;10.622;2023-02-25T06:15:47;50.67;;;30.87;;
40637;SDS011;26336;44.696;10.622;2023-02-25T06:18:51;52.83;;;30.70;;
40637;SDS011;26336;44.696;10.622;2023-02-25T06:21:55;50.97;;;29.67;;
40637;SDS011;26336;44.696;10.622;2023-02-25T06:24:59;49.70;;;30.13;;
40637;SDS011;26336;44.696;10.622;2023-02-25T06:28:03;49.27;;;30.70;;
40637;SDS011;26336;44.696;10.622;2023-02-25T06:31:08;45.60;;;27.87;;
40637;SDS011;26336;44.696;10.622;2023-02-25T06:34:13;48.40;;;29.03;;
40637;SDS011;26336;44.696;10.622;2023-02-25T06:37:17;50.50;;;29.70;;
40637;SDS011;26336;44.696;10.622;2023-02-25T06:40:21;52.03;;;30.30;;
40637;SDS011;26336;44.696;10.622;2023-02-25T06:43:25;44.97;;;28.10;;
40637;SDS011;26336;44.696;10.622;2023-02-25T06:46:29;50.97;;;29.77;;
40637;SDS011;26336;44.696;10.622;2023-02-25T06:49:33;49.17;;;30.13;;
40637;SDS011;26336;44.696;10.622;2023-02-25T06:52:37;49.40;;;30.20;;
40637;SDS011;26336;44.696;10.622;2023-02-25T06:55:41;52.57;;;30.90;;
40637;SDS011;26336;44.696;10.622;2023-02-25T06:58:48;47.73;;;30.43;;
40637;SDS011;26336;44.696;10.622;2023-02-25T07:01:56;52.27;;;31.00;;
40637;SDS011;26336;44.696;10.622;2023-02-25T07:05:00;46.07;;;28.80;;
40637;SDS011;26336;44.696;10.622;2023-02-25T07:08:06;62.23;;;33.07;;
40637;SDS011;26336;44.696;10.622;2023-02-25T07:14:18;59.03;;;32.87;;
40637;SDS011;26336;44.696;10.622;2023-02-25T07:17:21;50.37;;;30.40;;
40637;SDS011;26336;44.696;10.622;2023-02-25T07:20:25;51.33;;;31.47;;
40637;SDS011;26336;44.696;10.622;2023-02-25T07:23:29;54.10;;;32.53;;
40637;SDS011;26336;44.696;10.622;2023-02-25T07:26:33;56.67;;;32.93;;
40637;SDS011;26336;44.696;10.622;2023-02-25T07:29:37;52.13;;;32.07;;
40637;SDS011;26336;44.696;10.622;2023-02-25T07:32:42;51.10;;;32.03;;
40637;SDS011;26336;44.696;10.622;2023-02-25T07:35:46;56.40;;;32.70;;
40637;SDS011;26336;44.696;10.622;2023-02-25T07:38:50;49.80;;;30.47;;
40637;SDS011;26336;44.696;10.622;2023-02-25T07:41:54;59.87;;;34.83;;
40637;SDS011;26336;44.696;10.622;2023-02-25T07:44:58;58.13;;;32.43;;
40637;SDS011;26336;44.696;10.622;2023-02-25T07:48:01;53.97;;;33.30;;
40637;SDS011;26336;44.696;10.622;2023-02-25T07:51:11;62.47;;;34.50;;
40637;SDS011;26336;44.696;10.622;2023-02-25T07:54:20;59.50;;;34.63;;
40637;SDS011;26336;44.696;10.622;2023-02-25T07:57:28;58.30;;;35.53;;
40637;SDS011;26336;44.696;10.622;2023-02-25T08:00:32;59.50;;;33.33;;
40637;SDS011;26336;44.696;10.622;2023-02-25T08:03:37;65.17;;;36.43;;
40637;SDS011;26336;44.696;10.622;2023-02-25T08:06:41;71.80;;;39.35;;
40637;SDS011;26336;44.696;10.622;2023-02-25T08:09:45;69.87;;;39.67;;
40637;SDS011;26336;44.696;10.622;2023-02-25T08:12:49;71.13;;;41.28;;
40637;SDS011;26336;44.696;10.622;2023-02-25T08:15:53;79.10;;;45.33;;
40637;SDS011;26336;44.696;10.622;2023-02-25T08:18:58;81.00;;;46.77;;
40637;SDS011;26336;44.696;10.622;2023-02-25T08:22:16;88.78;;;48.08;;
40637;SDS011;26336;44.696;10.622;2023-02-25T08:25:20;85.95;;;49.25;;
40637;SDS011;26336;44.696;10.622;2023-02-25T08:28:29;87.73;;;49.10;;
40637;SDS011;26336;44.696;10.622;2023-02-25T08:31:36;88.77;;;50.77;;
40637;SDS011;26336;44.696;10.622;2023-02-25T08:34:40;91.20;;;52.05;;
40637;SDS011;26336;44.696;10.622;2023-02-25T08:37:44;96.72;;;53.75;;
40637;SDS011;26336;44.696;10.622;2023-02-25T08:40:49;107.18;;;56.88;;
40637;SDS011;26336;44.696;10.622;2023-02-25T08:43:53;95.82;;;54.00;;
40637;SDS011;26336;44.696;10.622;2023-02-25T08:46:59;103.65;;;56.97;;
40637;SDS011;26336;44.696;10.622;2023-02-25T08:50:03;101.05;;;57.53;;
40637;SDS011;26336;44.696;10.622;2023-02-25T08:53:07;103.45;;;57.95;;
40637;SDS011;26336;44.696;10.622;2023-02-25T08:56:13;99.10;;;56.67;;
40637;SDS011;26336;44.696;10.622;2023-02-25T08:59:18;93.05;;;53.08;;
40637;SDS011;26336;44.696;10.622;2023-02-25T09:02:22;82.45;;;48.47;;
40637;SDS011;26336;44.696;10.622;2023-02-25T09:05:26;86.80;;;49.30;;
40637;SDS011;26336;44.696;10.622;2023-02-25T09:08:30;82.43;;;47.17;;
40637;SDS011;26336;44.696;10.622;2023-02-25T09:11:34;81.72;;;47.08;;
40637;SDS011;26336;44.696;10.622;2023-02-25T09:14:38;81.10;;;44.83;;
40637;SDS011;26336;44.696;10.622;2023-02-25T09:17:42;78.45;;;45.08;;
40637;SDS011;26336;44.696;10.622;2023-02-25T09:20:48;76.25;;;44.25;;
40637;SDS011;26336;44.696;10.622;2023-02-25T09:23:58;78.25;;;43.00;;
40637;SDS011;26336;44.696;10.622;2023-02-25T09:27:02;75.50;;;42.35;;
40637;SDS011;26336;44.696;10.622;2023-02-25T09:30:12;65.45;;;38.72;;
40637;SDS011;26336;44.696;10.622;2023-02-25T09:33:17;68.10;;;39.33;;
40637;SDS011;26336;44.696;10.622;2023-02-25T09:36:21;65.10;;;37.40;;
40637;SDS011;26336;44.696;10.622;2023-02-25T09:39:25;61.13;;;35.55;;
40637;SDS011;26336;44.696;10.622;2023-02-25T09:46:08;59.75;;;34.25;;
40637;SDS011;26336;44.696;10.622;2023-02-25T09:49:17;56.05;;;33.05;;
40637;SDS011;26336;44.696;10.622;2023-02-25T09:52:26;63.03;;;31.58;;
40637;SDS011;26336;44.696;10.622;2023-02-25T09:55:41;51.20;;;30.80;;
40637;SDS011;26336;44.696;10.622;2023-02-25T09:58:49;51.10;;;28.85;;
40637;SDS011;26336;44.696;10.622;2023-02-25T10:02:19;49.67;;;30.15;;
40637;SDS011;26336;44.696;10.622;2023-02-25T10:08:50;47.30;;;29.38;;
40637;SDS011;26336;44.696;10.622;2023-02-25T10:15:36;52.00;;;29.60;;
40637;SDS011;26336;44.696;10.622;2023-02-25T10:19:13;44.17;;;25.85;;
40637;SDS011;26336;44.696;10.622;2023-02-25T10:25:38;50.92;;;29.75;;
40637;SDS011;26336;44.696;10.622;2023-02-25T10:28:55;50.58;;;28.00;;
40637;SDS011;26336;44.696;10.622;2023-02-25T10:32:11;40.53;;;24.95;;
40637;SDS011;26336;44.696;10.622;2023-02-25T10:35:24;55.72;;;31.02;;
40637;SDS011;26336;44.696;10.622;2023-02-25T10:38:29;47.63;;;29.23;;
40637;SDS011;26336;44.696;10.622;2023-02-25T10:41:34;53.33;;;27.52;;
40637;SDS011;26336;44.696;10.622;2023-02-25T10:44:38;56.40;;;30.33;;
40637;SDS011;26336;44.696;10.622;2023-02-25T10:47:43;52.45;;;31.23;;
40637;SDS011;26336;44.696;10.622;2023-02-25T10:51:12;52.33;;;29.40;;
40637;SDS011;26336;44.696;10.622;2023-02-25T10:54:18;53.05;;;31.52;;
40637;SDS011;26336;44.696;10.622;2023-02-25T10:57:39;48.58;;;29.50;;
40637;SDS011;26336;44.696;10.622;2023-02-25T11:00:47;52.67;;;31.80;;
40637;SDS011;26336;44.696;10.622;2023-02-25T11:04:12;52.33;;;30.48;;
40637;SDS011;26336;44.696;10.622;2023-02-25T11:07:30;52.20;;;30.38;;
40637;SDS011;26336;44.696;10.622;2023-02-25T11:10:43;53.95;;;31.25;;
40637;SDS011;26336;44.696;10.622;2023-02-25T11:17:18;58.28;;;32.08;;
40637;SDS011;26336;44.696;10.622;2023-02-25T11:20:23;49.22;;;29.77;;
40637;SDS011;26336;44.696;10.622;2023-02-25T11:23:33;53.00;;;30.63;;
40637;SDS011;26336;44.696;10.622;2023-02-25T11:26:41;58.97;;;31.38;;
40637;SDS011;26336;44.696;10.622;2023-02-25T11:29:48;56.38;;;32.58;;
40637;SDS011;26336;44.696;10.622;2023-02-25T11:32:53;49.33;;;31.27;;
40637;SDS011;26336;44.696;10.622;2023-02-25T11:36:00;52.22;;;30.05;;
40637;SDS011;26336;44.696;10.622;2023-02-25T11:39:25;58.03;;;33.85;;
40637;SDS011;26336;44.696;10.622;2023-02-25T11:42:33;53.33;;;31.58;;
40637;SDS011;26336;44.696;10.622;2023-02-25T11:45:38;53.20;;;32.60;;
40637;SDS011;26336;44.696;10.622;2023-02-25T11:52:02;51.95;;;31.00;;
40637;SDS011;26336;44.696;10.622;2023-02-25T11:58:45;56.75;;;33.38;;
40637;SDS011;26336;44.696;10.622;2023-02-25T12:05:58;48.03;;;29.48;;
40637;SDS011;26336;44.696;10.622;2023-02-25T12:09:26;49.42;;;28.48;;
40637;SDS011;26336;44.696;10.622;2023-02-25T12:12:57;49.90;;;28.25;;
40637;SDS011;26336;44.696;10.622;2023-02-25T12:23:37;41.15;;;23.40;;
40637;SDS011;26336;44.696;10.622;2023-02-25T12:43:47;53.88;;;30.73;;
40637;SDS011;26336;44.696;10.622;2023-02-25T12:47:23;54.22;;;31.02;;
40637;SDS011;26336;44.696;10.622;2023-02-25T12:50:54;49.72;;;32.17;;
40637;SDS011;26336;44.696;10.622;2023-02-25T13:04:44;50.58;;;31.27;;
40637;SDS011;26336;44.696;10.622;2023-02-25T13:18:08;50.78;;;31.48;;
40637;SDS011;26336;44.696;10.622;2023-02-25T13:22:04;51.33;;;29.30;;
40637;SDS011;26336;44.696;10.622;2023-02-25T13:25:20;55.50;;;31.17;;
40637;SDS011;26336;44.696;10.622;2023-02-25T13:32:08;42.75;;;26.90;;
40637;SDS011;26336;44.696;10.622;2023-02-25T13:35:43;51.20;;;31.27;;
40637;SDS011;26336;44.696;10.622;2023-02-25T13:52:16;56.95;;;31.15;;
40637;SDS011;26336;44.696;10.622;2023-02-25T14:08:45;51.30;;;29.20;;
40637;SDS011;26336;44.696;10.622;2023-02-25T14:12:03;50.40;;;28.05;;
40637;SDS011;26336;44.696;10.622;2023-02-25T14:15:41;39.05;;;22.98;;
40637;SDS011;26336;44.696;10.622;2023-02-25T14:29:41;44.15;;;26.15;;
40637;SDS011;26336;44.696;10.622;2023-02-25T14:48:04;32.58;;;19.92;;
40637;SDS011;26336;44.696;10.622;2023-02-25T15:09:45;40.60;;;25.67;;
40637;SDS011;26336;44.696;10.622;2023-02-25T15:20:40;64.22;;;32.13;;
40637;SDS011;26336;44.696;10.622;2023-02-25T15:23:49;46.45;;;27.10;;
40637;SDS011;26336;44.696;10.622;2023-02-25T15:26:55;53.92;;;30.50;;
40637;SDS011;26336;44.696;10.622;2023-02-25T15:30:00;55.60;;;30.40;;
40637;SDS011;26336;44.696;10.622;2023-02-25T15:33:33;54.70;;;32.50;;
40637;SDS011;26336;44.696;10.622;2023-02-25T15:36:41;57.85;;;32.35;;
40637;SDS011;26336;44.696;10.622;2023-02-25T15:39:51;48.33;;;28.63;;
40637;SDS011;26336;44.696;10.622;2023-02-25T15:42:57;60.00;;;31.52;;
40637;SDS011;26336;44.696;10.622;2023-02-25T15:49:39;49.20;;;28.20;;
40637;SDS011;26336;44.696;10.622;2023-02-25T15:52:50;48.30;;;28.50;;
40637;SDS011;26336;44.696;10.622;2023-02-25T15:59:08;53.40;;;32.95;;
40637;SDS011;26336;44.696;10.622;2023-02-25T16:05:32;59.40;;;31.40;;
40637;SDS011;26336;44.696;10.622;2023-02-25T16:12:07;58.35;;;30.80;;
40637;SDS011;26336;44.696;10.622;2023-02-25T16:18:40;52.67;;;29.73;;
40637;SDS011;26336;44.696;10.622;2023-02-25T16:21:59;49.80;;;29.92;;
40637;SDS011;26336;44.696;10.622;2023-02-25T16:25:11;56.50;;;31.00;;
40637;SDS011;26336;44.696;10.622;2023-02-25T16:28:24;53.95;;;29.08;;
40637;SDS011;26336;44.696;10.622;2023-02-25T16:42:11;49.78;;;30.17;;
40637;SDS011;26336;44.696;10.622;2023-02-25T16:45:21;50.95;;;30.08;;
40637;SDS011;26336;44.696;10.622;2023-02-25T16:51:47;52.50;;;31.02;;
40637;SDS011;26336;44.696;10.622;2023-02-25T16:54:59;52.22;;;29.33;;
40637;SDS011;26336;44.696;10.622;2023-02-25T17:01:21;61.10;;;32.45;;
40637;SDS011;26336;44.696;10.622;2023-02-25T17:04:28;56.00;;;33.63;;
40637;SDS011;26336;44.696;10.622;2023-02-25T17:07:34;57.10;;;32.33;;
40637;SDS011;26336;44.696;10.622;2023-02-25T17:10:43;52.80;;;31.63;;
40637;SDS011;26336;44.696;10.622;2023-02-25T17:13:50;60.95;;;31.55;;
40637;SDS011;26336;44.696;10.622;2023-02-25T17:16:58;50.60;;;30.67;;
40637;SDS011;26336;44.696;10.622;2023-02-25T17:20:03;69.57;;;32.00;;
40637;SDS011;26336;44.696;10.622;2023-02-25T17:23:12;56.08;;;31.25;;
40637;SDS011;26336;44.696;10.622;2023-02-25T17:26:17;57.60;;;33.13;;
40637;SDS011;26336;44.696;10.622;2023-02-25T17:29:30;55.13;;;32.55;;
40637;SDS011;26336;44.696;10.622;2023-02-25T17:32:38;69.88;;;36.55;;
40637;SDS011;26336;44.696;10.622;2023-02-25T17:35:42;57.85;;;34.25;;
40637;SDS011;26336;44.696;10.622;2023-02-25T17:38:49;57.28;;;35.53;;
40637;SDS011;26336;44.696;10.622;2023-02-25T17:41:57;59.10;;;34.75;;
40637;SDS011;26336;44.696;10.622;2023-02-25T17:45:03;58.50;;;33.85;;
40637;SDS011;26336;44.696;10.622;2023-02-25T17:48:27;61.95;;;34.90;;
40637;SDS011;26336;44.696;10.622;2023-02-25T17:51:34;54.70;;;32.92;;
40637;SDS011;26336;44.696;10.622;2023-02-25T17:54:39;60.53;;;32.55;;
40637;SDS011;26336;44.696;10.622;2023-02-25T17:57:48;57.38;;;33.33;;
40637;SDS011;26336;44.696;10.622;2023-02-25T18:00:58;51.00;;;32.13;;
40637;SDS011;26336;44.696;10.622;2023-02-25T18:04:04;59.03;;;33.40;;
40637;SDS011;26336;44.696;10.622;2023-02-25T18:07:28;63.72;;;35.20;;
40637;SDS011;26336;44.696;10.622;2023-02-25T18:13:39;53.92;;;33.22;;
40637;SDS011;26336;44.696;10.622;2023-02-25T18:16:43;56.63;;;34.65;;
40637;SDS011;26336;44.696;10.622;2023-02-25T18:19:47;56.22;;;32.65;;
40637;SDS011;26336;44.696;10.622;2023-02-25T18:22:51;57.95;;;33.05;;
40637;SDS011;26336;44.696;10.622;2023-02-25T18:29:17;54.78;;;33.55;;
40637;SDS011;26336;44.696;10.622;2023-02-25T18:32:22;57.47;;;34.47;;
40637;SDS011;26336;44.696;10.622;2023-02-25T18:35:26;57.05;;;34.42;;
40637;SDS011;26336;44.696;10.622;2023-02-25T18:38:32;56.90;;;34.33;;
40637;SDS011;26336;44.696;10.622;2023-02-25T18:41:39;55.40;;;32.60;;
40637;SDS011;26336;44.696;10.622;2023-02-25T18:44:44;57.22;;;32.85;;
40637;SDS011;26336;44.696;10.622;2023-02-25T18:47:50;55.03;;;34.45;;
40637;SDS011;26336;44.696;10.622;2023-02-25T18:50:54;59.40;;;35.63;;
40637;SDS011;26336;44.696;10.622;2023-02-25T18:54:01;62.15;;;37.13;;
40637;SDS011;26336;44.696;10.622;2023-02-25T18:57:11;57.60;;;35.90;;
40637;SDS011;26336;44.696;10.622;2023-02-25T19:00:23;64.35;;;36.28;;
40637;SDS011;26336;44.696;10.622;2023-02-25T19:03:35;62.20;;;36.10;;
40637;SDS011;26336;44.696;10.622;2023-02-25T19:06:41;60.45;;;36.05;;
40637;SDS011;26336;44.696;10.622;2023-02-25T19:09:45;58.70;;;34.58;;
40637;SDS011;26336;44.696;10.622;2023-02-25T19:12:50;51.88;;;33.85;;
40637;SDS011;26336;44.696;10.622;2023-02-25T19:16:00;58.10;;;36.83;;
40637;SDS011;26336;44.696;10.622;2023-02-25T19:19:05;67.78;;;39.72;;
40637;SDS011;26336;44.696;10.622;2023-02-25T19:22:09;60.70;;;37.42;;
40637;SDS011;26336;44.696;10.622;2023-02-25T19:28:23;57.47;;;35.90;;
40637;SDS011;26336;44.696;10.622;2023-02-25T19:31:27;61.22;;;37.78;;
40637;SDS011;26336;44.696;10.622;2023-02-25T19:34:31;60.65;;;37.60;;
40637;SDS011;26336;44.696;10.622;2023-02-25T19:37:35;69.72;;;38.63;;
40637;SDS011;26336;44.696;10.622;2023-02-25T19:40:41;52.70;;;31.08;;
40637;SDS011;26336;44.696;10.622;2023-02-25T19:43:46;53.15;;;32.38;;
40637;SDS011;26336;44.696;10.622;2023-02-25T19:46:51;63.20;;;35.50;;
40637;SDS011;26336;44.696;10.622;2023-02-25T19:49:55;60.00;;;38.28;;
40637;SDS011;26336;44.696;10.622;2023-02-25T19:53:00;61.83;;;37.97;;
40637;SDS011;26336;44.696;10.622;2023-02-25T19:56:05;52.05;;;32.92;;
40637;SDS011;26336;44.696;10.622;2023-02-25T19:59:10;54.45;;;33.20;;
40637;SDS011;26336;44.696;10.622;2023-02-25T20:02:15;71.53;;;38.10;;
40637;SDS011;26336;44.696;10.622;2023-02-25T20:05:20;53.15;;;34.72;;
40637;SDS011;26336;44.696;10.622;2023-02-25T20:08:25;53.75;;;32.63;;
40637;SDS011;26336;44.696;10.622;2023-02-25T20:11:29;53.03;;;33.90;;
40637;SDS011;26336;44.696;10.622;2023-02-25T20:14:34;56.92;;;34.75;;
40637;SDS011;26336;44.696;10.622;2023-02-25T20:17:39;59.47;;;36.50;;
40637;SDS011;26336;44.696;10.622;2023-02-25T20:20:44;61.35;;;36.80;;
40637;SDS011;26336;44.696;10.622;2023-02-25T20:23:48;62.95;;;37.42;;
40637;SDS011;26336;44.696;10.622;2023-02-25T20:26:52;64.60;;;35.90;;
40637;SDS011;26336;44.696;10.622;2023-02-25T20:29:58;69.60;;;38.47;;
40637;SDS011;26336;44.696;10.622;2023-02-25T20:33:02;66.15;;;37.08;;
40637;SDS011;26336;44.696;10.622;2023-02-25T20:36:25;63.42;;;37.97;;
40637;SDS011;26336;44.696;10.622;2023-02-25T20:39:43;62.72;;;37.78;;
40637;SDS011;26336;44.696;10.622;2023-02-25T20:42:53;57.88;;;36.50;;
40637;SDS011;26336;44.696;10.622;2023-02-25T20:45:57;59.15;;;36.83;;
40637;SDS011;26336;44.696;10.622;2023-02-25T20:49:02;65.93;;;38.63;;
40637;SDS011;26336;44.696;10.622;2023-02-25T20:52:09;64.03;;;35.70;;
40637;SDS011;26336;44.696;10.622;2023-02-25T20:55:15;60.17;;;36.28;;
40637;SDS011;26336;44.696;10.622;2023-02-25T20:58:19;59.17;;;36.70;;
40637;SDS011;26336;44.696;10.622;2023-02-25T21:01:24;57.35;;;35.67;;
40637;SDS011;26336;44.696;10.622;2023-02-25T21:04:28;59.35;;;36.47;;
40637;SDS011;26336;44.696;10.622;2023-02-25T21:07:31;62.55;;;37.03;;
40637;SDS011;26336;44.696;10.622;2023-02-25T21:10:36;55.53;;;34.65;;
40637;SDS011;26336;44.696;10.622;2023-02-25T21:13:40;60.85;;;36.33;;
40637;SDS011;26336;44.696;10.622;2023-02-25T21:20:11;66.00;;;37.47;;
40637;SDS011;26336;44.696;10.622;2023-02-25T21:23:16;59.28;;;38.10;;
40637;SDS011;26336;44.696;10.622;2023-02-25T21:26:20;67.10;;;40.92;;
40637;SDS011;26336;44.696;10.622;2023-02-25T21:29:24;66.15;;;39.05;;
40637;SDS011;26336;44.696;10.622;2023-02-25T21:32:28;67.72;;;41.25;;
40637;SDS011;26336;44.696;10.622;2023-02-25T21:35:31;61.90;;;38.58;;
40637;SDS011;26336;44.696;10.622;2023-02-25T21:38:36;65.90;;;39.97;;
40637;SDS011;26336;44.696;10.622;2023-02-25T21:41:40;65.03;;;38.72;;
40637;SDS011;26336;44.696;10.622;2023-02-25T21:44:44;65.97;;;39.95;;
40637;SDS011;26336;44.696;10.622;2023-02-25T21:47:48;66.70;;;39.35;;